sensor_id;sensor_type;location;lat;lon;timestamp;P1;durP1;ratioP1;P2;durP2;ratioP2
43994;SDS011;51687;52.160;5.298;2023-02-28T00:02:20;5.40;;;4.75;;
43994;SDS011;51687;52.160;5.298;2023-02-28T00:04:47;6.18;;;4.28;;
43994;SDS011;51687;52.160;5.298;2023-02-28T00:07:19;5.47;;;4.97;;
43994;SDS011;51687;52.160;5.298;2023-02-28T00:09:45;5.18;;;4.30;;
43994;SDS011;51687;52.160;5.298;2023-02-28T00:12:12;4.90;;;4.13;;
43994;SDS011;51687;52.160;5.298;2023-02-28T00:14:39;5.63;;;4.07;;
43994;SDS011;51687;52.160;5.298;2023-02-28T00:17:06;7.18;;;4.82;;
43994;SDS011;51687;52.160;5.298;2023-02-28T00:19:32;4.65;;;4.25;;
43994;SDS011;51687;52.160;5.298;2023-02-28T00:21:59;6.53;;;4.78;;
43994;SDS011;51687;52.160;5.298;2023-02-28T00:24:26;6.97;;;4.05;;
43994;SDS011;51687;52.160;5.298;2023-02-28T00:26:52;4.72;;;4.22;;
43994;SDS011;51687;52.160;5.298;2023-02-28T00:29:19;5.72;;;4.22;;
43994;SDS011;51687;52.160;5.298;2023-02-28T00:31:46;5.65;;;4.10;;
43994;SDS011;51687;52.160;5.298;2023-02-28T00:34:12;5.68;;;4.10;;
43994;SDS011;51687;52.160;5.298;2023-02-28T00:36:39;4.43;;;3.83;;
43994;SDS011;51687;52.160;5.298;2023-02-28T00:39:09;4.65;;;4.20;;
43994;SDS011;51687;52.160;5.298;2023-02-28T00:41:36;4.82;;;3.90;;
43994;SDS011;51687;52.160;5.298;2023-02-28T00:44:03;4.22;;;3.53;;
43994;SDS011;51687;52.160;5.298;2023-02-28T00:46:30;4.82;;;4.35;;
43994;SDS011;51687;52.160;5.298;2023-02-28T00:48:56;4.78;;;3.97;;
43994;SDS011;51687;52.160;5.298;2023-02-28T00:51:23;5.72;;;4.55;;
43994;SDS011;51687;52.160;5.298;2023-02-28T00:53:50;4.47;;;4.07;;
43994;SDS011;51687;52.160;5.298;2023-02-28T00:56:17;5.22;;;3.95;;
43994;SDS011;51687;52.160;5.298;2023-02-28T00:58:44;5.30;;;3.90;;
43994;SDS011;51687;52.160;5.298;2023-02-28T01:01:11;4.47;;;4.07;;
43994;SDS011;51687;52.160;5.298;2023-02-28T01:03:38;5.70;;;3.90;;
43994;SDS011;51687;52.160;5.298;2023-02-28T01:06:04;6.53;;;4.38;;
43994;SDS011;51687;52.160;5.298;2023-02-28T01:08:31;4.85;;;4.07;;
43994;SDS011;51687;52.160;5.298;2023-02-28T01:10:58;4.75;;;3.58;;
43994;SDS011;51687;52.160;5.298;2023-02-28T01:13:34;4.97;;;4.47;;
43994;SDS011;51687;52.160;5.298;2023-02-28T01:16:01;6.13;;;4.25;;
43994;SDS011;51687;52.160;5.298;2023-02-28T01:18:28;4.43;;;3.90;;
43994;SDS011;51687;52.160;5.298;2023-02-28T01:20:54;4.13;;;3.72;;
43994;SDS011;51687;52.160;5.298;2023-02-28T01:23:21;4.03;;;3.60;;
43994;SDS011;51687;52.160;5.298;2023-02-28T01:25:50;4.85;;;3.50;;
43994;SDS011;51687;52.160;5.298;2023-02-28T01:28:17;4.68;;;4.00;;
43994;SDS011;51687;52.160;5.298;2023-02-28T01:30:47;4.15;;;3.67;;
43994;SDS011;51687;52.160;5.298;2023-02-28T01:33:14;4.15;;;3.75;;
43994;SDS011;51687;52.160;5.298;2023-02-28T01:35:41;5.25;;;3.63;;
43994;SDS011;51687;52.160;5.298;2023-02-28T01:38:08;4.47;;;3.40;;
43994;SDS011;51687;52.160;5.298;2023-02-28T01:40:47;7.05;;;4.05;;
43994;SDS011;51687;52.160;5.298;2023-02-28T01:43:28;4.13;;;3.70;;
43994;SDS011;51687;52.160;5.298;2023-02-28T01:46:18;3.72;;;3.42;;
43994;SDS011;51687;52.160;5.298;2023-02-28T01:49:08;5.35;;;3.72;;
43994;SDS011;51687;52.160;5.298;2023-02-28T01:51:37;4.68;;;3.55;;
43994;SDS011;51687;52.160;5.298;2023-02-28T01:54:07;4.05;;;3.65;;
43994;SDS011;51687;52.160;5.298;2023-02-28T01:56:41;3.47;;;3.17;;
43994;SDS011;51687;52.160;5.298;2023-02-28T01:59:14;4.53;;;3.42;;
43994;SDS011;51687;52.160;5.298;2023-02-28T02:02:12;5.82;;;3.90;;
43994;SDS011;51687;52.160;5.298;2023-02-28T02:04:42;4.00;;;3.40;;
43994;SDS011;51687;52.160;5.298;2023-02-28T02:07:18;5.05;;;3.70;;
43994;SDS011;51687;52.160;5.298;2023-02-28T02:09:46;3.58;;;3.30;;
43994;SDS011;51687;52.160;5.298;2023-02-28T02:12:17;4.50;;;3.15;;
43994;SDS011;51687;52.160;5.298;2023-02-28T02:41:46;4.70;;;2.60;;
43994;SDS011;51687;52.160;5.298;2023-02-28T02:47:11;2.80;;;2.60;;
43994;SDS011;51687;52.160;5.298;2023-02-28T02:49:46;3.40;;;2.50;;
43994;SDS011;51687;52.160;5.298;2023-02-28T02:52:17;2.55;;;2.10;;
43994;SDS011;51687;52.160;5.298;2023-02-28T02:54:50;3.33;;;2.10;;
43994;SDS011;51687;52.160;5.298;2023-02-28T02:57:33;3.10;;;2.40;;
43994;SDS011;51687;52.160;5.298;2023-02-28T03:00:11;4.65;;;2.63;;
43994;SDS011;51687;52.160;5.298;2023-02-28T03:02:41;2.60;;;2.40;;
43994;SDS011;51687;52.160;5.298;2023-02-28T03:05:21;5.18;;;2.80;;
43994;SDS011;51687;52.160;5.298;2023-02-28T03:07:52;3.97;;;2.42;;
43994;SDS011;51687;52.160;5.298;2023-02-28T03:10:25;3.78;;;2.53;;
43994;SDS011;51687;52.160;5.298;2023-02-28T03:12:57;4.13;;;2.33;;
43994;SDS011;51687;52.160;5.298;2023-02-28T03:15:44;4.25;;;2.67;;
43994;SDS011;51687;52.160;5.298;2023-02-28T03:18:43;4.32;;;2.75;;
43994;SDS011;51687;52.160;5.298;2023-02-28T03:24:11;5.28;;;2.33;;
43994;SDS011;51687;52.160;5.298;2023-02-28T03:26:50;3.08;;;2.40;;
43994;SDS011;51687;52.160;5.298;2023-02-28T03:29:23;4.88;;;2.47;;
43994;SDS011;51687;52.160;5.298;2023-02-28T03:34:42;3.67;;;2.60;;
43994;SDS011;51687;52.160;5.298;2023-02-28T03:39:59;5.65;;;3.30;;
43994;SDS011;51687;52.160;5.298;2023-02-28T03:42:33;4.80;;;3.42;;
43994;SDS011;51687;52.160;5.298;2023-02-28T03:45:08;4.28;;;2.80;;
43994;SDS011;51687;52.160;5.298;2023-02-28T03:47:40;3.17;;;2.50;;
43994;SDS011;51687;52.160;5.298;2023-02-28T03:52:46;4.65;;;3.08;;
43994;SDS011;51687;52.160;5.298;2023-02-28T03:55:16;3.55;;;2.97;;
43994;SDS011;51687;52.160;5.298;2023-02-28T03:57:53;4.10;;;3.20;;
43994;SDS011;51687;52.160;5.298;2023-02-28T04:00:29;3.13;;;2.78;;
43994;SDS011;51687;52.160;5.298;2023-02-28T04:02:59;3.50;;;2.90;;
43994;SDS011;51687;52.160;5.298;2023-02-28T04:05:26;6.60;;;3.30;;
43994;SDS011;51687;52.160;5.298;2023-02-28T04:07:53;3.78;;;3.15;;
43994;SDS011;51687;52.160;5.298;2023-02-28T04:10:20;3.97;;;3.30;;
43994;SDS011;51687;52.160;5.298;2023-02-28T04:12:47;4.32;;;2.83;;
43994;SDS011;51687;52.160;5.298;2023-02-28T04:15:14;5.20;;;3.05;;
43994;SDS011;51687;52.160;5.298;2023-02-28T04:17:41;4.78;;;3.28;;
43994;SDS011;51687;52.160;5.298;2023-02-28T04:20:08;4.45;;;3.90;;
43994;SDS011;51687;52.160;5.298;2023-02-28T04:22:36;6.60;;;4.15;;
43994;SDS011;51687;52.160;5.298;2023-02-28T04:25:03;5.88;;;4.60;;
43994;SDS011;51687;52.160;5.298;2023-02-28T04:27:34;5.18;;;4.05;;
43994;SDS011;51687;52.160;5.298;2023-02-28T04:30:01;4.95;;;4.18;;
43994;SDS011;51687;52.160;5.298;2023-02-28T04:32:28;6.20;;;4.18;;
43994;SDS011;51687;52.160;5.298;2023-02-28T04:34:55;5.25;;;4.53;;
43994;SDS011;51687;52.160;5.298;2023-02-28T04:37:21;4.72;;;3.83;;
43994;SDS011;51687;52.160;5.298;2023-02-28T04:39:53;3.28;;;2.97;;
43994;SDS011;51687;52.160;5.298;2023-02-28T04:42:20;4.07;;;2.78;;
43994;SDS011;51687;52.160;5.298;2023-02-28T04:44:47;2.92;;;2.63;;
43994;SDS011;51687;52.160;5.298;2023-02-28T04:47:14;5.43;;;2.35;;
43994;SDS011;51687;52.160;5.298;2023-02-28T04:49:41;4.43;;;2.42;;
43994;SDS011;51687;52.160;5.298;2023-02-28T04:52:07;4.18;;;2.72;;
43994;SDS011;51687;52.160;5.298;2023-02-28T04:54:36;3.78;;;2.75;;
43994;SDS011;51687;52.160;5.298;2023-02-28T04:59:32;3.75;;;2.90;;
43994;SDS011;51687;52.160;5.298;2023-02-28T05:01:59;3.88;;;2.55;;
43994;SDS011;51687;52.160;5.298;2023-02-28T05:04:25;3.75;;;2.83;;
43994;SDS011;51687;52.160;5.298;2023-02-28T05:06:52;4.00;;;2.60;;
43994;SDS011;51687;52.160;5.298;2023-02-28T05:09:19;3.65;;;2.85;;
43994;SDS011;51687;52.160;5.298;2023-02-28T05:11:45;3.72;;;2.80;;
43994;SDS011;51687;52.160;5.298;2023-02-28T05:14:13;3.17;;;2.83;;
43994;SDS011;51687;52.160;5.298;2023-02-28T05:16:40;3.05;;;2.80;;
43994;SDS011;51687;52.160;5.298;2023-02-28T05:19:07;4.60;;;4.05;;
43994;SDS011;51687;52.160;5.298;2023-02-28T05:21:40;8.07;;;7.28;;
43994;SDS011;51687;52.160;5.298;2023-02-28T05:24:14;9.35;;;5.70;;
43994;SDS011;51687;52.160;5.298;2023-02-28T05:26:41;5.68;;;4.20;;
43994;SDS011;51687;52.160;5.298;2023-02-28T05:29:09;4.53;;;3.53;;
43994;SDS011;51687;52.160;5.298;2023-02-28T05:31:36;3.80;;;2.53;;
43994;SDS011;51687;52.160;5.298;2023-02-28T05:34:03;3.45;;;2.47;;
43994;SDS011;51687;52.160;5.298;2023-02-28T05:36:30;3.35;;;2.45;;
43994;SDS011;51687;52.160;5.298;2023-02-28T05:38:57;2.97;;;2.78;;
43994;SDS011;51687;52.160;5.298;2023-02-28T05:41:24;4.38;;;3.38;;
43994;SDS011;51687;52.160;5.298;2023-02-28T05:43:52;3.07;;;2.70;;
43994;SDS011;51687;52.160;5.298;2023-02-28T05:46:19;6.20;;;3.00;;
43994;SDS011;51687;52.160;5.298;2023-02-28T05:48:46;6.80;;;3.17;;
43994;SDS011;51687;52.160;5.298;2023-02-28T05:51:15;3.45;;;2.80;;
43994;SDS011;51687;52.160;5.298;2023-02-28T05:53:43;4.90;;;3.42;;
43994;SDS011;51687;52.160;5.298;2023-02-28T05:56:10;7.63;;;3.05;;
43994;SDS011;51687;52.160;5.298;2023-02-28T05:58:37;3.33;;;3.00;;
43994;SDS011;51687;52.160;5.298;2023-02-28T06:04:03;3.83;;;2.95;;
43994;SDS011;51687;52.160;5.298;2023-02-28T06:06:32;3.28;;;2.97;;
43994;SDS011;51687;52.160;5.298;2023-02-28T06:09:03;4.88;;;3.00;;
43994;SDS011;51687;52.160;5.298;2023-02-28T06:11:31;5.57;;;3.33;;
43994;SDS011;51687;52.160;5.298;2023-02-28T06:14:00;4.68;;;3.55;;
43994;SDS011;51687;52.160;5.298;2023-02-28T06:16:28;4.15;;;3.20;;
43994;SDS011;51687;52.160;5.298;2023-02-28T06:19:00;3.35;;;3.08;;
43994;SDS011;51687;52.160;5.298;2023-02-28T06:21:30;5.40;;;3.58;;
43994;SDS011;51687;52.160;5.298;2023-02-28T06:26:25;5.10;;;3.95;;
43994;SDS011;51687;52.160;5.298;2023-02-28T06:28:52;5.78;;;3.20;;
43994;SDS011;51687;52.160;5.298;2023-02-28T06:31:18;3.53;;;3.22;;
43994;SDS011;51687;52.160;5.298;2023-02-28T06:33:46;3.55;;;3.25;;
43994;SDS011;51687;52.160;5.298;2023-02-28T06:36:14;5.72;;;3.53;;
43994;SDS011;51687;52.160;5.298;2023-02-28T06:38:42;4.57;;;3.45;;
43994;SDS011;51687;52.160;5.298;2023-02-28T06:41:09;4.03;;;3.50;;
43994;SDS011;51687;52.160;5.298;2023-02-28T06:43:38;3.97;;;3.47;;
43994;SDS011;51687;52.160;5.298;2023-02-28T06:46:08;3.80;;;3.47;;
43994;SDS011;51687;52.160;5.298;2023-02-28T06:48:37;3.58;;;3.28;;
43994;SDS011;51687;52.160;5.298;2023-02-28T06:51:05;3.67;;;3.38;;
43994;SDS011;51687;52.160;5.298;2023-02-28T06:53:33;4.55;;;3.42;;
43994;SDS011;51687;52.160;5.298;2023-02-28T06:56:04;5.38;;;3.78;;
43994;SDS011;51687;52.160;5.298;2023-02-28T06:58:32;3.70;;;3.40;;
43994;SDS011;51687;52.160;5.298;2023-02-28T07:01:00;8.02;;;4.30;;
43994;SDS011;51687;52.160;5.298;2023-02-28T07:03:28;3.88;;;3.58;;
43994;SDS011;51687;52.160;5.298;2023-02-28T07:05:54;5.50;;;3.80;;
43994;SDS011;51687;52.160;5.298;2023-02-28T07:08:25;3.17;;;2.88;;
43994;SDS011;51687;52.160;5.298;2023-02-28T07:10:53;6.00;;;3.58;;
43994;SDS011;51687;52.160;5.298;2023-02-28T07:13:20;4.00;;;3.00;;
43994;SDS011;51687;52.160;5.298;2023-02-28T07:18:21;3.92;;;3.13;;
43994;SDS011;51687;52.160;5.298;2023-02-28T07:20:48;5.07;;;3.10;;
43994;SDS011;51687;52.160;5.298;2023-02-28T07:23:15;5.53;;;3.53;;
43994;SDS011;51687;52.160;5.298;2023-02-28T07:25:43;3.60;;;3.30;;
43994;SDS011;51687;52.160;5.298;2023-02-28T07:28:10;9.30;;;3.58;;
43994;SDS011;51687;52.160;5.298;2023-02-28T07:30:37;7.32;;;3.80;;
43994;SDS011;51687;52.160;5.298;2023-02-28T07:33:04;4.82;;;4.43;;
43994;SDS011;51687;52.160;5.298;2023-02-28T07:35:31;4.80;;;4.40;;
43994;SDS011;51687;52.160;5.298;2023-02-28T07:37:58;6.60;;;6.00;;
43994;SDS011;51687;52.160;5.298;2023-02-28T07:40:26;6.50;;;6.00;;
43994;SDS011;51687;52.160;5.298;2023-02-28T07:42:53;6.72;;;6.13;;
43994;SDS011;51687;52.160;5.298;2023-02-28T07:45:20;12.88;;;10.35;;
43994;SDS011;51687;52.160;5.298;2023-02-28T07:47:47;12.60;;;11.27;;
43994;SDS011;51687;52.160;5.298;2023-02-28T07:50:15;9.80;;;8.93;;
43994;SDS011;51687;52.160;5.298;2023-02-28T07:52:42;9.90;;;7.28;;
43994;SDS011;51687;52.160;5.298;2023-02-28T07:55:09;11.80;;;6.85;;
43994;SDS011;51687;52.160;5.298;2023-02-28T07:57:36;7.43;;;6.82;;
43994;SDS011;51687;52.160;5.298;2023-02-28T08:00:04;6.40;;;5.60;;
43994;SDS011;51687;52.160;5.298;2023-02-28T08:02:32;7.53;;;5.70;;
43994;SDS011;51687;52.160;5.298;2023-02-28T08:04:59;9.98;;;6.30;;
43994;SDS011;51687;52.160;5.298;2023-02-28T08:07:26;7.93;;;4.90;;
43994;SDS011;51687;52.160;5.298;2023-02-28T08:09:53;12.73;;;4.72;;
43994;SDS011;51687;52.160;5.298;2023-02-28T08:12:20;5.25;;;3.70;;
43994;SDS011;51687;52.160;5.298;2023-02-28T08:14:47;4.63;;;3.63;;
43994;SDS011;51687;52.160;5.298;2023-02-28T08:17:15;3.95;;;3.22;;
43994;SDS011;51687;52.160;5.298;2023-02-28T08:19:44;3.80;;;3.40;;
43994;SDS011;51687;52.160;5.298;2023-02-28T08:22:12;3.33;;;3.03;;
43994;SDS011;51687;52.160;5.298;2023-02-28T08:24:39;4.95;;;3.50;;
43994;SDS011;51687;52.160;5.298;2023-02-28T08:27:08;4.32;;;3.08;;
43994;SDS011;51687;52.160;5.298;2023-02-28T08:29:36;4.05;;;3.65;;
43994;SDS011;51687;52.160;5.298;2023-02-28T08:32:04;3.90;;;3.50;;
43994;SDS011;51687;52.160;5.298;2023-02-28T08:34:39;4.47;;;3.95;;
43994;SDS011;51687;52.160;5.298;2023-02-28T08:37:06;5.07;;;4.32;;
43994;SDS011;51687;52.160;5.298;2023-02-28T08:39:34;5.05;;;4.35;;
43994;SDS011;51687;52.160;5.298;2023-02-28T08:42:03;4.07;;;3.72;;
43994;SDS011;51687;52.160;5.298;2023-02-28T08:44:34;4.70;;;3.90;;
43994;SDS011;51687;52.160;5.298;2023-02-28T08:47:01;4.77;;;4.27;;
43994;SDS011;51687;52.160;5.298;2023-02-28T08:49:28;4.13;;;3.75;;
43994;SDS011;51687;52.160;5.298;2023-02-28T08:51:55;6.45;;;4.30;;
43994;SDS011;51687;52.160;5.298;2023-02-28T08:54:23;4.30;;;3.90;;
43994;SDS011;51687;52.160;5.298;2023-02-28T08:56:50;5.78;;;4.18;;
43994;SDS011;51687;52.160;5.298;2023-02-28T08:59:18;13.00;;;4.75;;
43994;SDS011;51687;52.160;5.298;2023-02-28T09:01:45;5.65;;;4.20;;
43994;SDS011;51687;52.160;5.298;2023-02-28T09:04:12;6.75;;;5.88;;
43994;SDS011;51687;52.160;5.298;2023-02-28T09:06:45;5.13;;;4.50;;
43994;SDS011;51687;52.160;5.298;2023-02-28T09:09:15;6.32;;;3.55;;
43994;SDS011;51687;52.160;5.298;2023-02-28T09:11:42;3.40;;;3.10;;
43994;SDS011;51687;52.160;5.298;2023-02-28T09:14:09;3.78;;;3.10;;
43994;SDS011;51687;52.160;5.298;2023-02-28T09:16:36;3.22;;;2.78;;
43994;SDS011;51687;52.160;5.298;2023-02-28T09:19:04;4.55;;;2.60;;
43994;SDS011;51687;52.160;5.298;2023-02-28T09:21:30;3.92;;;2.30;;
43994;SDS011;51687;52.160;5.298;2023-02-28T09:23:57;4.30;;;2.97;;
43994;SDS011;51687;52.160;5.298;2023-02-28T09:26:25;3.25;;;2.90;;
43994;SDS011;51687;52.160;5.298;2023-02-28T09:29:04;3.75;;;2.92;;
43994;SDS011;51687;52.160;5.298;2023-02-28T09:31:31;2.85;;;2.30;;
43994;SDS011;51687;52.160;5.298;2023-02-28T09:33:58;3.33;;;2.40;;
43994;SDS011;51687;52.160;5.298;2023-02-28T09:36:26;3.47;;;2.42;;
43994;SDS011;51687;52.160;5.298;2023-02-28T09:39:09;3.15;;;2.45;;
43994;SDS011;51687;52.160;5.298;2023-02-28T09:41:41;2.38;;;2.05;;
43994;SDS011;51687;52.160;5.298;2023-02-28T09:44:36;2.53;;;2.17;;
43994;SDS011;51687;52.160;5.298;2023-02-28T09:49:37;2.90;;;2.22;;
43994;SDS011;51687;52.160;5.298;2023-02-28T09:52:09;2.58;;;2.10;;
43994;SDS011;51687;52.160;5.298;2023-02-28T09:54:38;2.60;;;2.15;;
43994;SDS011;51687;52.160;5.298;2023-02-28T09:57:13;4.18;;;2.13;;
43994;SDS011;51687;52.160;5.298;2023-02-28T09:59:47;3.30;;;2.00;;
43994;SDS011;51687;52.160;5.298;2023-02-28T10:05:02;1.83;;;1.40;;
43994;SDS011;51687;52.160;5.298;2023-02-28T10:16:10;3.58;;;1.80;;
43994;SDS011;51687;52.160;5.298;2023-02-28T10:18:42;2.83;;;1.70;;
43994;SDS011;51687;52.160;5.298;2023-02-28T10:21:15;1.73;;;1.63;;
43994;SDS011;51687;52.160;5.298;2023-02-28T10:23:53;3.35;;;1.80;;
43994;SDS011;51687;52.160;5.298;2023-02-28T10:26:27;2.28;;;1.92;;
43994;SDS011;51687;52.160;5.298;2023-02-28T10:28:56;2.20;;;1.58;;
43994;SDS011;51687;52.160;5.298;2023-02-28T10:31:23;1.88;;;1.50;;
43994;SDS011;51687;52.160;5.298;2023-02-28T10:33:51;2.53;;;1.63;;
43994;SDS011;51687;52.160;5.298;2023-02-28T10:36:19;2.42;;;1.70;;
43994;SDS011;51687;52.160;5.298;2023-02-28T10:41:16;2.95;;;1.50;;
43994;SDS011;51687;52.160;5.298;2023-02-28T10:43:57;3.17;;;1.83;;
43994;SDS011;51687;52.160;5.298;2023-02-28T10:46:49;2.13;;;1.50;;
43994;SDS011;51687;52.160;5.298;2023-02-28T10:49:19;3.42;;;1.90;;
43994;SDS011;51687;52.160;5.298;2023-02-28T10:51:52;2.42;;;2.15;;
43994;SDS011;51687;52.160;5.298;2023-02-28T10:54:24;2.33;;;1.85;;
43994;SDS011;51687;52.160;5.298;2023-02-28T10:57:08;2.92;;;1.60;;
43994;SDS011;51687;52.160;5.298;2023-02-28T10:59:45;2.67;;;1.20;;
43994;SDS011;51687;52.160;5.298;2023-02-28T11:02:33;9.07;;;1.40;;
43994;SDS011;51687;52.160;5.298;2023-02-28T11:10:32;1.60;;;1.10;;
43994;SDS011;51687;52.160;5.298;2023-02-28T11:13:02;1.92;;;1.50;;
43994;SDS011;51687;52.160;5.298;2023-02-28T11:15:30;2.88;;;1.58;;
43994;SDS011;51687;52.160;5.298;2023-02-28T11:18:01;1.20;;;1.10;;
43994;SDS011;51687;52.160;5.298;2023-02-28T11:20:49;1.70;;;1.27;;
43994;SDS011;51687;52.160;5.298;2023-02-28T11:23:19;1.42;;;1.20;;
43994;SDS011;51687;52.160;5.298;2023-02-28T11:25:53;1.42;;;1.25;;
43994;SDS011;51687;52.160;5.298;2023-02-28T11:28:25;1.63;;;1.30;;
43994;SDS011;51687;52.160;5.298;2023-02-28T11:33:47;1.67;;;1.30;;
43994;SDS011;51687;52.160;5.298;2023-02-28T11:36:28;1.70;;;1.40;;
43994;SDS011;51687;52.160;5.298;2023-02-28T11:39:01;1.50;;;1.40;;
43994;SDS011;51687;52.160;5.298;2023-02-28T11:50:20;2.05;;;1.85;;
43994;SDS011;51687;52.160;5.298;2023-02-28T11:52:57;1.75;;;1.55;;
43994;SDS011;51687;52.160;5.298;2023-02-28T11:55:38;2.40;;;1.52;;
43994;SDS011;51687;52.160;5.298;2023-02-28T12:01:13;2.42;;;2.17;;
43994;SDS011;51687;52.160;5.298;2023-02-28T12:03:57;2.55;;;1.85;;
43994;SDS011;51687;52.160;5.298;2023-02-28T12:06:28;1.95;;;1.60;;
43994;SDS011;51687;52.160;5.298;2023-02-28T12:11:55;3.45;;;1.70;;
43994;SDS011;51687;52.160;5.298;2023-02-28T12:20:09;1.48;;;1.20;;
43994;SDS011;51687;52.160;5.298;2023-02-28T12:28:08;1.65;;;1.17;;
43994;SDS011;51687;52.160;5.298;2023-02-28T12:30:38;1.95;;;1.48;;
43994;SDS011;51687;52.160;5.298;2023-02-28T12:33:14;1.30;;;1.20;;
43994;SDS011;51687;52.160;5.298;2023-02-28T12:35:48;1.40;;;1.20;;
43994;SDS011;51687;52.160;5.298;2023-02-28T12:38:29;1.77;;;1.50;;
43994;SDS011;51687;52.160;5.298;2023-02-28T12:41:15;2.35;;;1.77;;
43994;SDS011;51687;52.160;5.298;2023-02-28T12:43:48;1.42;;;1.20;;
43994;SDS011;51687;52.160;5.298;2023-02-28T12:46:25;2.40;;;2.08;;
43994;SDS011;51687;52.160;5.298;2023-02-28T12:49:05;1.20;;;1.10;;
43994;SDS011;51687;52.160;5.298;2023-02-28T12:51:36;1.70;;;1.17;;
43994;SDS011;51687;52.160;5.298;2023-02-28T12:54:16;1.30;;;1.10;;
43994;SDS011;51687;52.160;5.298;2023-02-28T13:09:32;2.70;;;1.33;;
43994;SDS011;51687;52.160;5.298;2023-02-28T13:11:59;1.45;;;0.98;;
43994;SDS011;51687;52.160;5.298;2023-02-28T13:14:34;2.92;;;1.40;;
43994;SDS011;51687;52.160;5.298;2023-02-28T13:19:30;5.95;;;1.60;;
43994;SDS011;51687;52.160;5.298;2023-02-28T13:21:58;4.20;;;1.30;;
43994;SDS011;51687;52.160;5.298;2023-02-28T13:24:37;3.38;;;1.27;;
43994;SDS011;51687;52.160;5.298;2023-02-28T13:29:38;1.42;;;1.10;;
43994;SDS011;51687;52.160;5.298;2023-02-28T13:34:35;1.43;;;1.30;;
43994;SDS011;51687;52.160;5.298;2023-02-28T13:39:53;1.15;;;0.98;;
43994;SDS011;51687;52.160;5.298;2023-02-28T13:55:28;1.55;;;1.17;;
43994;SDS011;51687;52.160;5.298;2023-02-28T14:00:31;1.27;;;1.05;;
43994;SDS011;51687;52.160;5.298;2023-02-28T14:03:11;2.25;;;1.27;;
43994;SDS011;51687;52.160;5.298;2023-02-28T14:05:40;1.48;;;1.38;;
43994;SDS011;51687;52.160;5.298;2023-02-28T14:08:11;3.97;;;1.63;;
43994;SDS011;51687;52.160;5.298;2023-02-28T14:10:46;2.33;;;2.13;;
43994;SDS011;51687;52.160;5.298;2023-02-28T14:14:00;2.08;;;1.17;;
43994;SDS011;51687;52.160;5.298;2023-02-28T14:16:03;1.42;;;1.27;;
43994;SDS011;51687;52.160;5.298;2023-02-28T14:18:33;5.72;;;2.05;;
43994;SDS011;51687;52.160;5.298;2023-02-28T14:21:02;2.88;;;1.30;;
43994;SDS011;51687;52.160;5.298;2023-02-28T14:23:39;2.42;;;1.35;;
43994;SDS011;51687;52.160;5.298;2023-02-28T14:29:08;1.35;;;1.20;;
43994;SDS011;51687;52.160;5.298;2023-02-28T14:31:46;1.33;;;1.23;;
43994;SDS011;51687;52.160;5.298;2023-02-28T14:36:49;2.10;;;1.30;;
43994;SDS011;51687;52.160;5.298;2023-02-28T14:39:19;1.80;;;1.30;;
43994;SDS011;51687;52.160;5.298;2023-02-28T14:41:46;1.58;;;1.20;;
43994;SDS011;51687;52.160;5.298;2023-02-28T14:46:42;3.33;;;1.20;;
43994;SDS011;51687;52.160;5.298;2023-02-28T14:49:24;3.00;;;1.80;;
43994;SDS011;51687;52.160;5.298;2023-02-28T14:52:03;6.72;;;1.52;;
43994;SDS011;51687;52.160;5.298;2023-02-28T14:54:32;3.50;;;1.42;;
43994;SDS011;51687;52.160;5.298;2023-02-28T14:56:59;1.85;;;1.30;;
43994;SDS011;51687;52.160;5.298;2023-02-28T14:59:28;3.53;;;1.58;;
43994;SDS011;51687;52.160;5.298;2023-02-28T15:04:42;1.75;;;1.50;;
43994;SDS011;51687;52.160;5.298;2023-02-28T15:09:37;1.88;;;1.20;;
43994;SDS011;51687;52.160;5.298;2023-02-28T15:12:05;2.33;;;1.35;;
43994;SDS011;51687;52.160;5.298;2023-02-28T15:14:32;2.20;;;1.55;;
43994;SDS011;51687;52.160;5.298;2023-02-28T15:17:03;4.28;;;1.27;;
43994;SDS011;51687;52.160;5.298;2023-02-28T15:19:36;1.73;;;1.08;;
43994;SDS011;51687;52.160;5.298;2023-02-28T15:22:07;2.50;;;1.30;;
43994;SDS011;51687;52.160;5.298;2023-02-28T15:24:40;2.17;;;1.52;;
43994;SDS011;51687;52.160;5.298;2023-02-28T15:27:44;2.03;;;1.30;;
43994;SDS011;51687;52.160;5.298;2023-02-28T15:30:05;2.28;;;1.40;;
43994;SDS011;51687;52.160;5.298;2023-02-28T15:32:35;5.10;;;2.30;;
43994;SDS011;51687;52.160;5.298;2023-02-28T15:35:20;2.33;;;1.20;;
43994;SDS011;51687;52.160;5.298;2023-02-28T15:37:56;3.45;;;1.50;;
43994;SDS011;51687;52.160;5.298;2023-02-28T15:40:26;11.55;;;2.25;;
43994;SDS011;51687;52.160;5.298;2023-02-28T15:45:46;7.38;;;2.63;;
43994;SDS011;51687;52.160;5.298;2023-02-28T15:48:27;2.50;;;1.50;;
43994;SDS011;51687;52.160;5.298;2023-02-28T15:51:17;1.80;;;1.70;;
43994;SDS011;51687;52.160;5.298;2023-02-28T15:53:48;2.08;;;1.83;;
43994;SDS011;51687;52.160;5.298;2023-02-28T15:56:23;1.63;;;1.40;;
43994;SDS011;51687;52.160;5.298;2023-02-28T15:58:55;1.67;;;1.30;;
43994;SDS011;51687;52.160;5.298;2023-02-28T16:01:33;1.90;;;1.67;;
43994;SDS011;51687;52.160;5.298;2023-02-28T16:04:06;12.32;;;2.28;;
43994;SDS011;51687;52.160;5.298;2023-02-28T16:06:44;3.97;;;1.73;;
43994;SDS011;51687;52.160;5.298;2023-02-28T16:09:20;2.25;;;1.40;;
43994;SDS011;51687;52.160;5.298;2023-02-28T16:11:47;4.25;;;2.08;;
43994;SDS011;51687;52.160;5.298;2023-02-28T16:14:22;4.93;;;1.33;;
43994;SDS011;51687;52.160;5.298;2023-02-28T16:16:51;1.88;;;1.38;;
43994;SDS011;51687;52.160;5.298;2023-02-28T16:19:20;1.52;;;1.40;;
43994;SDS011;51687;52.160;5.298;2023-02-28T16:21:48;2.03;;;1.50;;
43994;SDS011;51687;52.160;5.298;2023-02-28T16:24:15;1.85;;;1.50;;
43994;SDS011;51687;52.160;5.298;2023-02-28T16:26:44;3.38;;;1.52;;
43994;SDS011;51687;52.160;5.298;2023-02-28T16:29:19;1.33;;;1.20;;
43994;SDS011;51687;52.160;5.298;2023-02-28T16:31:56;1.88;;;1.42;;
43994;SDS011;51687;52.160;5.298;2023-02-28T16:34:24;1.73;;;1.30;;
43994;SDS011;51687;52.160;5.298;2023-02-28T16:36:51;2.50;;;1.33;;
43994;SDS011;51687;52.160;5.298;2023-02-28T16:39:18;5.30;;;2.72;;
43994;SDS011;51687;52.160;5.298;2023-02-28T16:41:47;4.38;;;1.88;;
43994;SDS011;51687;52.160;5.298;2023-02-28T16:44:57;7.68;;;2.10;;
43994;SDS011;51687;52.160;5.298;2023-02-28T16:47:04;3.25;;;2.95;;
43994;SDS011;51687;52.160;5.298;2023-02-28T16:49:31;4.38;;;4.00;;
43994;SDS011;51687;52.160;5.298;2023-02-28T16:51:58;1.92;;;1.70;;
43994;SDS011;51687;52.160;5.298;2023-02-28T16:54:25;2.40;;;1.67;;
43994;SDS011;51687;52.160;5.298;2023-02-28T16:56:52;4.07;;;2.80;;
43994;SDS011;51687;52.160;5.298;2023-02-28T16:59:22;3.50;;;3.20;;
43994;SDS011;51687;52.160;5.298;2023-02-28T17:01:51;2.17;;;1.98;;
43994;SDS011;51687;52.160;5.298;2023-02-28T17:04:18;2.30;;;1.75;;
43994;SDS011;51687;52.160;5.298;2023-02-28T17:06:45;2.88;;;2.33;;
43994;SDS011;51687;52.160;5.298;2023-02-28T17:09:17;2.40;;;2.20;;
43994;SDS011;51687;52.160;5.298;2023-02-28T17:11:49;2.58;;;2.10;;
43994;SDS011;51687;52.160;5.298;2023-02-28T17:14:16;2.38;;;2.17;;
43994;SDS011;51687;52.160;5.298;2023-02-28T17:16:43;3.15;;;1.98;;
43994;SDS011;51687;52.160;5.298;2023-02-28T17:19:12;4.60;;;2.28;;
43994;SDS011;51687;52.160;5.298;2023-02-28T17:21:40;4.50;;;4.10;;
43994;SDS011;51687;52.160;5.298;2023-02-28T17:24:10;4.25;;;3.47;;
43994;SDS011;51687;52.160;5.298;2023-02-28T17:26:44;3.55;;;3.25;;
43994;SDS011;51687;52.160;5.298;2023-02-28T17:29:16;3.63;;;2.60;;
43994;SDS011;51687;52.160;5.298;2023-02-28T17:31:47;3.63;;;2.55;;
43994;SDS011;51687;52.160;5.298;2023-02-28T17:34:15;4.78;;;2.25;;
43994;SDS011;51687;52.160;5.298;2023-02-28T17:36:44;3.25;;;2.70;;
43994;SDS011;51687;52.160;5.298;2023-02-28T17:39:13;3.42;;;3.13;;
43994;SDS011;51687;52.160;5.298;2023-02-28T17:41:41;4.53;;;3.45;;
43994;SDS011;51687;52.160;5.298;2023-02-28T17:44:08;3.83;;;3.38;;
43994;SDS011;51687;52.160;5.298;2023-02-28T17:46:35;3.42;;;3.13;;